sensor_id;sensor_type;location;lat;lon;timestamp;temperature;humidity
9975;DHT22;5028;50.974;4.968;2022-09-09T00:00:56;14.70;99.90
9975;DHT22;5028;50.974;4.968;2022-09-09T00:03:27;14.70;99.90
9975;DHT22;5028;50.974;4.968;2022-09-09T00:06:10;14.60;99.90
9975;DHT22;5028;50.974;4.968;2022-09-09T00:08:54;14.60;99.90
9975;DHT22;5028;50.974;4.968;2022-09-09T00:11:39;14.60;99.90
9975;DHT22;5028;50.974;4.968;2022-09-09T00:14:17;14.60;99.90
9975;DHT22;5028;50.974;4.968;2022-09-09T00:16:56;14.60;99.90
9975;DHT22;5028;50.974;4.968;2022-09-09T00:19:35;14.60;99.90
9975;DHT22;5028;50.974;4.968;2022-09-09T00:22:17;14.60;99.90
9975;DHT22;5028;50.974;4.968;2022-09-09T00:24:47;14.60;99.90
9975;DHT22;5028;50.974;4.968;2022-09-09T00:27:26;14.60;99.90
9975;DHT22;5028;50.974;4.968;2022-09-09T00:30:12;14.50;99.90
9975;DHT22;5028;50.974;4.968;2022-09-09T00:32:48;14.60;99.90
9975;DHT22;5028;50.974;4.968;2022-09-09T00:35:22;14.60;99.90
9975;DHT22;5028;50.974;4.968;2022-09-09T00:38:03;14.50;99.90
9975;DHT22;5028;50.974;4.968;2022-09-09T00:40:41;14.50;99.90
9975;DHT22;5028;50.974;4.968;2022-09-09T00:43:26;14.50;99.90
9975;DHT22;5028;50.974;4.968;2022-09-09T00:46:20;14.50;99.90
9975;DHT22;5028;50.974;4.968;2022-09-09T00:49:04;14.50;99.90
9975;DHT22;5028;50.974;4.968;2022-09-09T00:51:46;14.50;99.90
9975;DHT22;5028;50.974;4.968;2022-09-09T00:54:31;14.50;99.90
9975;DHT22;5028;50.974;4.968;2022-09-09T00:57:12;14.50;99.90
9975;DHT22;5028;50.974;4.968;2022-09-09T00:59:51;14.50;99.90
9975;DHT22;5028;50.974;4.968;2022-09-09T01:02:27;14.40;99.90
9975;DHT22;5028;50.974;4.968;2022-09-09T01:05:15;14.40;99.90
9975;DHT22;5028;50.974;4.968;2022-09-09T01:08:05;14.40;99.90
9975;DHT22;5028;50.974;4.968;2022-09-09T01:10:42;14.40;99.90
9975;DHT22;5028;50.974;4.968;2022-09-09T01:13:23;14.40;99.90
9975;DHT22;5028;50.974;4.968;2022-09-09T01:15:59;14.40;99.90
9975;DHT22;5028;50.974;4.968;2022-09-09T01:18:33;14.40;99.90
9975;DHT22;5028;50.974;4.968;2022-09-09T01:21:16;14.40;99.90
9975;DHT22;5028;50.974;4.968;2022-09-09T01:24:01;14.40;99.90
9975;DHT22;5028;50.974;4.968;2022-09-09T01:26:43;14.40;99.90
9975;DHT22;5028;50.974;4.968;2022-09-09T01:29:14;14.40;99.90
9975;DHT22;5028;50.974;4.968;2022-09-09T01:31:54;14.40;99.90
9975;DHT22;5028;50.974;4.968;2022-09-09T01:34:23;14.40;99.90
9975;DHT22;5028;50.974;4.968;2022-09-09T01:37:03;14.40;99.90
9975;DHT22;5028;50.974;4.968;2022-09-09T01:39:33;14.40;99.90
9975;DHT22;5028;50.974;4.968;2022-09-09T01:42:14;14.40;99.90
9975;DHT22;5028;50.974;4.968;2022-09-09T01:44:43;14.40;99.90
9975;DHT22;5028;50.974;4.968;2022-09-09T01:47:17;14.40;99.90
9975;DHT22;5028;50.974;4.968;2022-09-09T01:49:46;14.40;99.90
9975;DHT22;5028;50.974;4.968;2022-09-09T01:52:21;14.40;99.90
9975;DHT22;5028;50.974;4.968;2022-09-09T01:54:50;14.40;99.90
9975;DHT22;5028;50.974;4.968;2022-09-09T01:57:30;14.40;99.90
9975;DHT22;5028;50.974;4.968;2022-09-09T02:00:04;14.40;99.90
9975;DHT22;5028;50.974;4.968;2022-09-09T02:02:49;14.40;99.90
9975;DHT22;5028;50.974;4.968;2022-09-09T02:05:27;14.40;99.90
9975;DHT22;5028;50.974;4.968;2022-09-09T02:08:07;14.40;99.90
9975;DHT22;5028;50.974;4.968;2022-09-09T02:10:42;14.50;99.90
9975;DHT22;5028;50.974;4.968;2022-09-09T02:13:22;14.40;99.90
9975;DHT22;5028;50.974;4.968;2022-09-09T02:15:54;14.40;99.90
9975;DHT22;5028;50.974;4.968;2022-09-09T02:18:34;14.40;99.90
9975;DHT22;5028;50.974;4.968;2022-09-09T02:21:04;14.50;99.90
9975;DHT22;5028;50.974;4.968;2022-09-09T02:23:41;14.50;99.90
9975;DHT22;5028;50.974;4.968;2022-09-09T02:26:12;14.40;99.90
9975;DHT22;5028;50.974;4.968;2022-09-09T02:28:55;14.50;99.90
9975;DHT22;5028;50.974;4.968;2022-09-09T02:31:25;14.50;99.90
9975;DHT22;5028;50.974;4.968;2022-09-09T02:34:01;14.40;99.90
9975;DHT22;5028;50.974;4.968;2022-09-09T02:36:33;14.40;99.90
9975;DHT22;5028;50.974;4.968;2022-09-09T02:39:10;14.50;99.90
9975;DHT22;5028;50.974;4.968;2022-09-09T02:41:40;14.40;99.90
9975;DHT22;5028;50.974;4.968;2022-09-09T02:44:18;14.40;99.90
9975;DHT22;5028;50.974;4.968;2022-09-09T02:47:09;14.40;99.90
9975;DHT22;5028;50.974;4.968;2022-09-09T02:49:55;14.40;99.90
9975;DHT22;5028;50.974;4.968;2022-09-09T02:52:32;14.50;99.90
9975;DHT22;5028;50.974;4.968;2022-09-09T02:55:14;14.40;99.90
9975;DHT22;5028;50.974;4.968;2022-09-09T02:57:46;14.40;99.90
9975;DHT22;5028;50.974;4.968;2022-09-09T03:00:27;14.40;99.90
9975;DHT22;5028;50.974;4.968;2022-09-09T03:02:56;14.40;99.90
9975;DHT22;5028;50.974;4.968;2022-09-09T03:05:38;14.40;99.90
9975;DHT22;5028;50.974;4.968;2022-09-09T03:08:19;14.40;99.90
9975;DHT22;5028;50.974;4.968;2022-09-09T03:10:54;14.40;99.90
9975;DHT22;5028;50.974;4.968;2022-09-09T03:13:23;14.40;99.90
9975;DHT22;5028;50.974;4.968;2022-09-09T03:16:00;14.40;99.90
9975;DHT22;5028;50.974;4.968;2022-09-09T03:18:28;14.40;99.90
9975;DHT22;5028;50.974;4.968;2022-09-09T03:21:03;14.40;99.90
9975;DHT22;5028;50.974;4.968;2022-09-09T03:23:32;14.40;99.90
9975;DHT22;5028;50.974;4.968;2022-09-09T03:26:08;14.50;99.90
9975;DHT22;5028;50.974;4.968;2022-09-09T03:28:36;14.50;99.90
9975;DHT22;5028;50.974;4.968;2022-09-09T03:31:13;14.40;99.90
9975;DHT22;5028;50.974;4.968;2022-09-09T03:33:41;14.50;99.90
9975;DHT22;5028;50.974;4.968;2022-09-09T03:36:17;14.50;99.90
9975;DHT22;5028;50.974;4.968;2022-09-09T03:38:45;14.50;99.90
9975;DHT22;5028;50.974;4.968;2022-09-09T03:41:20;14.50;99.90
9975;DHT22;5028;50.974;4.968;2022-09-09T03:43:50;14.50;99.90
9975;DHT22;5028;50.974;4.968;2022-09-09T03:46:27;14.50;99.90
9975;DHT22;5028;50.974;4.968;2022-09-09T03:48:55;14.50;99.90
9975;DHT22;5028;50.974;4.968;2022-09-09T03:51:30;14.50;99.90
9975;DHT22;5028;50.974;4.968;2022-09-09T03:54:03;14.50;99.90
9975;DHT22;5028;50.974;4.968;2022-09-09T03:56:38;14.50;99.90
9975;DHT22;5028;50.974;4.968;2022-09-09T03:59:08;14.50;99.90
9975;DHT22;5028;50.974;4.968;2022-09-09T04:01:45;14.50;99.90
9975;DHT22;5028;50.974;4.968;2022-09-09T04:04:13;14.50;99.90
9975;DHT22;5028;50.974;4.968;2022-09-09T04:06:55;14.50;99.90
9975;DHT22;5028;50.974;4.968;2022-09-09T04:09:23;14.50;99.90
9975;DHT22;5028;50.974;4.968;2022-09-09T04:11:58;14.50;99.90
9975;DHT22;5028;50.974;4.968;2022-09-09T04:14:27;14.50;99.90
9975;DHT22;5028;50.974;4.968;2022-09-09T04:17:04;14.50;99.90
9975;DHT22;5028;50.974;4.968;2022-09-09T04:19:33;14.50;99.90
9975;DHT22;5028;50.974;4.968;2022-09-09T04:22:07;14.50;99.90
9975;DHT22;5028;50.974;4.968;2022-09-09T04:24:36;14.50;99.90
9975;DHT22;5028;50.974;4.968;2022-09-09T04:27:14;14.50;99.90
9975;DHT22;5028;50.974;4.968;2022-09-09T04:29:43;14.50;99.90
9975;DHT22;5028;50.974;4.968;2022-09-09T04:32:20;14.50;99.90
9975;DHT22;5028;50.974;4.968;2022-09-09T04:34:48;14.50;99.90
9975;DHT22;5028;50.974;4.968;2022-09-09T04:37:23;14.50;99.90
9975;DHT22;5028;50.974;4.968;2022-09-09T04:39:52;14.50;99.90
9975;DHT22;5028;50.974;4.968;2022-09-09T04:42:48;14.50;99.90
9975;DHT22;5028;50.974;4.968;2022-09-09T04:45:47;14.50;99.90
9975;DHT22;5028;50.974;4.968;2022-09-09T04:48:24;14.50;99.90
9975;DHT22;5028;50.974;4.968;2022-09-09T04:50:57;14.40;99.90
9975;DHT22;5028;50.974;4.968;2022-09-09T04:53:33;14.40;99.90
9975;DHT22;5028;50.974;4.968;2022-09-09T04:56:10;14.40;99.90
9975;DHT22;5028;50.974;4.968;2022-09-09T04:58:39;14.40;99.90
9975;DHT22;5028;50.974;4.968;2022-09-09T05:01:17;14.40;99.90
9975;DHT22;5028;50.974;4.968;2022-09-09T05:03:48;14.40;99.90
9975;DHT22;5028;50.974;4.968;2022-09-09T05:06:23;14.40;99.90
9975;DHT22;5028;50.974;4.968;2022-09-09T05:09:05;14.50;99.90
9975;DHT22;5028;50.974;4.968;2022-09-09T05:11:40;14.40;99.90
9975;DHT22;5028;50.974;4.968;2022-09-09T05:14:09;14.40;99.90
9975;DHT22;5028;50.974;4.968;2022-09-09T05:16:45;14.40;99.90
9975;DHT22;5028;50.974;4.968;2022-09-09T05:19:16;14.40;99.90
9975;DHT22;5028;50.974;4.968;2022-09-09T05:21:52;14.40;99.90
9975;DHT22;5028;50.974;4.968;2022-09-09T05:24:21;14.50;99.90
9975;DHT22;5028;50.974;4.968;2022-09-09T05:26:50;14.50;99.90
9975;DHT22;5028;50.974;4.968;2022-09-09T05:29:25;14.50;99.90
9975;DHT22;5028;50.974;4.968;2022-09-09T05:31:54;14.40;99.90
9975;DHT22;5028;50.974;4.968;2022-09-09T05:34:31;14.50;99.90
9975;DHT22;5028;50.974;4.968;2022-09-09T05:37:00;14.50;99.90
9975;DHT22;5028;50.974;4.968;2022-09-09T05:39:34;14.50;99.90
9975;DHT22;5028;50.974;4.968;2022-09-09T05:42:05;14.50;99.90
9975;DHT22;5028;50.974;4.968;2022-09-09T05:44:40;14.50;99.90
9975;DHT22;5028;50.974;4.968;2022-09-09T05:47:09;14.50;99.90
9975;DHT22;5028;50.974;4.968;2022-09-09T05:49:46;14.50;99.90
9975;DHT22;5028;50.974;4.968;2022-09-09T05:52:15;14.60;99.90
9975;DHT22;5028;50.974;4.968;2022-09-09T05:54:49;14.60;99.90
9975;DHT22;5028;50.974;4.968;2022-09-09T05:57:18;14.70;99.90
9975;DHT22;5028;50.974;4.968;2022-09-09T05:59:53;14.80;99.90
9975;DHT22;5028;50.974;4.968;2022-09-09T06:02:22;14.80;99.90
9975;DHT22;5028;50.974;4.968;2022-09-09T06:04:58;14.80;99.90
9975;DHT22;5028;50.974;4.968;2022-09-09T06:07:46;14.80;99.90
9975;DHT22;5028;50.974;4.968;2022-09-09T06:10:14;14.90;99.90
9975;DHT22;5028;50.974;4.968;2022-09-09T06:12:52;14.90;99.90
9975;DHT22;5028;50.974;4.968;2022-09-09T06:15:21;15.00;99.90
9975;DHT22;5028;50.974;4.968;2022-09-09T06:17:56;15.00;99.90
9975;DHT22;5028;50.974;4.968;2022-09-09T06:20:26;15.10;99.90
9975;DHT22;5028;50.974;4.968;2022-09-09T06:23:03;15.30;99.90
9975;DHT22;5028;50.974;4.968;2022-09-09T06:25:32;15.40;99.90
9975;DHT22;5028;50.974;4.968;2022-09-09T06:28:07;15.50;99.90
9975;DHT22;5028;50.974;4.968;2022-09-09T06:30:36;15.60;99.90
9975;DHT22;5028;50.974;4.968;2022-09-09T06:33:11;15.70;99.90
9975;DHT22;5028;50.974;4.968;2022-09-09T06:35:41;15.70;99.90
9975;DHT22;5028;50.974;4.968;2022-09-09T06:38:16;15.70;99.90
9975;DHT22;5028;50.974;4.968;2022-09-09T06:40:51;15.70;99.90
9975;DHT22;5028;50.974;4.968;2022-09-09T06:43:26;15.70;99.90
9975;DHT22;5028;50.974;4.968;2022-09-09T06:45:56;15.70;99.90
9975;DHT22;5028;50.974;4.968;2022-09-09T06:48:30;15.80;99.90
9975;DHT22;5028;50.974;4.968;2022-09-09T06:51:05;15.80;99.90
9975;DHT22;5028;50.974;4.968;2022-09-09T06:53:41;15.80;99.90
9975;DHT22;5028;50.974;4.968;2022-09-09T06:56:19;15.80;99.90
9975;DHT22;5028;50.974;4.968;2022-09-09T06:58:59;15.80;99.90
9975;DHT22;5028;50.974;4.968;2022-09-09T07:01:28;15.90;99.90
9975;DHT22;5028;50.974;4.968;2022-09-09T07:04:05;16.00;99.90
9975;DHT22;5028;50.974;4.968;2022-09-09T07:06:38;16.10;99.90
9975;DHT22;5028;50.974;4.968;2022-09-09T07:09:20;16.20;99.90
9975;DHT22;5028;50.974;4.968;2022-09-09T07:11:51;16.20;99.90
9975;DHT22;5028;50.974;4.968;2022-09-09T07:14:26;16.20;99.90
9975;DHT22;5028;50.974;4.968;2022-09-09T07:16:55;16.40;99.90
9975;DHT22;5028;50.974;4.968;2022-09-09T07:19:25;16.40;99.90
9975;DHT22;5028;50.974;4.968;2022-09-09T07:22:02;16.40;99.90
9975;DHT22;5028;50.974;4.968;2022-09-09T07:24:31;16.50;99.90
9975;DHT22;5028;50.974;4.968;2022-09-09T07:27:05;16.50;99.90
9975;DHT22;5028;50.974;4.968;2022-09-09T07:29:34;16.60;99.90
9975;DHT22;5028;50.974;4.968;2022-09-09T07:32:09;16.60;99.90
9975;DHT22;5028;50.974;4.968;2022-09-09T07:34:37;16.60;99.90
9975;DHT22;5028;50.974;4.968;2022-09-09T07:37:14;16.60;99.90
9975;DHT22;5028;50.974;4.968;2022-09-09T07:39:44;16.60;99.90
9975;DHT22;5028;50.974;4.968;2022-09-09T07:42:19;16.70;99.90
9975;DHT22;5028;50.974;4.968;2022-09-09T07:44:48;16.70;99.90
9975;DHT22;5028;50.974;4.968;2022-09-09T07:47:23;16.60;99.90
9975;DHT22;5028;50.974;4.968;2022-09-09T07:49:51;16.60;99.90
9975;DHT22;5028;50.974;4.968;2022-09-09T07:52:28;16.60;99.90
9975;DHT22;5028;50.974;4.968;2022-09-09T07:54:56;16.60;99.90
9975;DHT22;5028;50.974;4.968;2022-09-09T07:57:31;16.50;99.90
9975;DHT22;5028;50.974;4.968;2022-09-09T08:00:00;16.60;99.90
9975;DHT22;5028;50.974;4.968;2022-09-09T08:02:36;16.60;99.90
9975;DHT22;5028;50.974;4.968;2022-09-09T08:05:04;16.70;99.90
9975;DHT22;5028;50.974;4.968;2022-09-09T08:07:48;16.70;99.90
9975;DHT22;5028;50.974;4.968;2022-09-09T08:10:16;16.70;99.90
9975;DHT22;5028;50.974;4.968;2022-09-09T08:12:52;16.70;99.90
9975;DHT22;5028;50.974;4.968;2022-09-09T08:15:40;16.80;99.90
9975;DHT22;5028;50.974;4.968;2022-09-09T08:18:16;16.80;99.90
9975;DHT22;5028;50.974;4.968;2022-09-09T08:20:51;16.80;99.90
9975;DHT22;5028;50.974;4.968;2022-09-09T08:23:21;16.80;99.90
9975;DHT22;5028;50.974;4.968;2022-09-09T08:26:03;16.80;99.90
9975;DHT22;5028;50.974;4.968;2022-09-09T08:28:32;16.90;99.90
9975;DHT22;5028;50.974;4.968;2022-09-09T08:31:10;16.90;99.90
9975;DHT22;5028;50.974;4.968;2022-09-09T08:33:39;17.00;99.90
9975;DHT22;5028;50.974;4.968;2022-09-09T08:36:20;17.00;99.90
9975;DHT22;5028;50.974;4.968;2022-09-09T08:38:51;17.10;99.90
9975;DHT22;5028;50.974;4.968;2022-09-09T08:41:48;17.10;99.90
9975;DHT22;5028;50.974;4.968;2022-09-09T08:44:26;17.30;99.90
9975;DHT22;5028;50.974;4.968;2022-09-09T08:47:10;17.30;99.90
9975;DHT22;5028;50.974;4.968;2022-09-09T08:49:58;17.30;99.90
9975;DHT22;5028;50.974;4.968;2022-09-09T08:52:40;17.40;99.90
9975;DHT22;5028;50.974;4.968;2022-09-09T08:55:24;17.50;99.90
9975;DHT22;5028;50.974;4.968;2022-09-09T08:58:06;17.50;99.90
9975;DHT22;5028;50.974;4.968;2022-09-09T09:00:55;17.60;99.90
9975;DHT22;5028;50.974;4.968;2022-09-09T09:03:41;17.60;99.90
9975;DHT22;5028;50.974;4.968;2022-09-09T09:06:21;17.60;99.90
9975;DHT22;5028;50.974;4.968;2022-09-09T09:09:02;17.70;99.90
9975;DHT22;5028;50.974;4.968;2022-09-09T09:11:47;17.70;99.90
9975;DHT22;5028;50.974;4.968;2022-09-09T09:14:23;17.50;99.90
9975;DHT22;5028;50.974;4.968;2022-09-09T09:17:00;17.40;99.90
9975;DHT22;5028;50.974;4.968;2022-09-09T09:19:39;17.30;99.90
9975;DHT22;5028;50.974;4.968;2022-09-09T09:22:15;17.30;99.90
9975;DHT22;5028;50.974;4.968;2022-09-09T09:24:52;17.00;99.90
9975;DHT22;5028;50.974;4.968;2022-09-09T09:27:32;16.80;99.90
9975;DHT22;5028;50.974;4.968;2022-09-09T09:30:14;16.60;99.90
9975;DHT22;5028;50.974;4.968;2022-09-09T09:32:59;16.50;99.90
9975;DHT22;5028;50.974;4.968;2022-09-09T09:35:35;16.40;99.90
9975;DHT22;5028;50.974;4.968;2022-09-09T09:38:16;16.40;99.90
9975;DHT22;5028;50.974;4.968;2022-09-09T09:41:11;16.40;99.90
9975;DHT22;5028;50.974;4.968;2022-09-09T09:43:41;16.30;99.90
9975;DHT22;5028;50.974;4.968;2022-09-09T09:46:22;16.30;99.90
9975;DHT22;5028;50.974;4.968;2022-09-09T09:48:59;16.30;99.90
9975;DHT22;5028;50.974;4.968;2022-09-09T09:51:35;16.30;99.90
9975;DHT22;5028;50.974;4.968;2022-09-09T09:54:14;16.20;99.90
9975;DHT22;5028;50.974;4.968;2022-09-09T09:56:50;16.10;99.90
9975;DHT22;5028;50.974;4.968;2022-09-09T09:59:23;16.10;99.90
9975;DHT22;5028;50.974;4.968;2022-09-09T10:02:14;16.10;99.90
9975;DHT22;5028;50.974;4.968;2022-09-09T10:04:44;16.20;99.90
9975;DHT22;5028;50.974;4.968;2022-09-09T10:07:26;16.20;99.90
9975;DHT22;5028;50.974;4.968;2022-09-09T10:09:56;16.20;99.90
9975;DHT22;5028;50.974;4.968;2022-09-09T10:12:40;16.20;99.90
9975;DHT22;5028;50.974;4.968;2022-09-09T10:15:28;16.20;99.90
9975;DHT22;5028;50.974;4.968;2022-09-09T10:18:19;16.30;99.90
9975;DHT22;5028;50.974;4.968;2022-09-09T10:20:55;16.40;99.90
9975;DHT22;5028;50.974;4.968;2022-09-09T10:24:04;16.40;99.90
9975;DHT22;5028;50.974;4.968;2022-09-09T10:26:42;16.40;99.90
9975;DHT22;5028;50.974;4.968;2022-09-09T10:32:36;16.50;99.90
9975;DHT22;5028;50.974;4.968;2022-09-09T10:35:26;16.60;99.90
9975;DHT22;5028;50.974;4.968;2022-09-09T10:38:12;16.60;99.90
9975;DHT22;5028;50.974;4.968;2022-09-09T10:41:09;16.60;99.90
9975;DHT22;5028;50.974;4.968;2022-09-09T10:44:17;16.60;99.90
9975;DHT22;5028;50.974;4.968;2022-09-09T10:46:56;16.60;99.90
9975;DHT22;5028;50.974;4.968;2022-09-09T10:49:52;16.60;99.90
9975;DHT22;5028;50.974;4.968;2022-09-09T10:52:28;16.70;99.90
9975;DHT22;5028;50.974;4.968;2022-09-09T10:55:10;16.70;99.90
9975;DHT22;5028;50.974;4.968;2022-09-09T10:57:42;16.70;99.90
9975;DHT22;5028;50.974;4.968;2022-09-09T11:00:20;16.80;99.90
9975;DHT22;5028;50.974;4.968;2022-09-09T11:02:52;16.80;99.90
9975;DHT22;5028;50.974;4.968;2022-09-09T11:05:36;16.90;99.90
9975;DHT22;5028;50.974;4.968;2022-09-09T11:08:23;16.90;99.90
9975;DHT22;5028;50.974;4.968;2022-09-09T11:11:02;17.00;99.90
9975;DHT22;5028;50.974;4.968;2022-09-09T11:13:38;17.00;99.90
9975;DHT22;5028;50.974;4.968;2022-09-09T11:16:21;17.00;99.90
9975;DHT22;5028;50.974;4.968;2022-09-09T11:18:55;17.10;99.90
9975;DHT22;5028;50.974;4.968;2022-09-09T11:21:37;17.20;99.90
9975;DHT22;5028;50.974;4.968;2022-09-09T11:24:11;17.30;99.90
9975;DHT22;5028;50.974;4.968;2022-09-09T11:26:53;17.30;99.90
9975;DHT22;5028;50.974;4.968;2022-09-09T11:30:13;17.40;99.90
9975;DHT22;5028;50.974;4.968;2022-09-09T11:33:28;17.40;99.90
9975;DHT22;5028;50.974;4.968;2022-09-09T11:36:11;17.50;99.90
9975;DHT22;5028;50.974;4.968;2022-09-09T11:38:52;17.50;99.90
9975;DHT22;5028;50.974;4.968;2022-09-09T11:41:21;17.70;99.90
9975;DHT22;5028;50.974;4.968;2022-09-09T11:43:57;17.80;99.90
9975;DHT22;5028;50.974;4.968;2022-09-09T11:46:34;17.90;99.90
9975;DHT22;5028;50.974;4.968;2022-09-09T11:49:27;17.90;99.90
9975;DHT22;5028;50.974;4.968;2022-09-09T11:51:55;18.00;99.90
9975;DHT22;5028;50.974;4.968;2022-09-09T11:54:34;18.10;99.90
9975;DHT22;5028;50.974;4.968;2022-09-09T11:57:25;18.10;99.90
9975;DHT22;5028;50.974;4.968;2022-09-09T12:00:03;18.20;99.90
9975;DHT22;5028;50.974;4.968;2022-09-09T12:02:32;18.40;99.90
9975;DHT22;5028;50.974;4.968;2022-09-09T12:05:13;18.60;99.90
9975;DHT22;5028;50.974;4.968;2022-09-09T12:07:50;18.90;99.90
9975;DHT22;5028;50.974;4.968;2022-09-09T12:10:37;19.30;99.90
9975;DHT22;5028;50.974;4.968;2022-09-09T12:13:18;19.70;99.90
9975;DHT22;5028;50.974;4.968;2022-09-09T12:15:57;19.80;99.90
9975;DHT22;5028;50.974;4.968;2022-09-09T12:18:32;19.70;99.90
9975;DHT22;5028;50.974;4.968;2022-09-09T12:21:15;19.40;99.90
9975;DHT22;5028;50.974;4.968;2022-09-09T12:23:49;19.30;99.90
9975;DHT22;5028;50.974;4.968;2022-09-09T12:26:31;19.20;99.90
9975;DHT22;5028;50.974;4.968;2022-09-09T12:29:12;19.10;99.90
9975;DHT22;5028;50.974;4.968;2022-09-09T12:31:54;19.00;99.90
9975;DHT22;5028;50.974;4.968;2022-09-09T12:34:34;18.90;99.90
9975;DHT22;5028;50.974;4.968;2022-09-09T12:37:20;18.90;99.90
9975;DHT22;5028;50.974;4.968;2022-09-09T12:39:54;19.00;99.90
9975;DHT22;5028;50.974;4.968;2022-09-09T12:42:32;19.20;99.90
9975;DHT22;5028;50.974;4.968;2022-09-09T12:45:16;19.20;99.90
9975;DHT22;5028;50.974;4.968;2022-09-09T12:47:55;19.20;99.90
9975;DHT22;5028;50.974;4.968;2022-09-09T12:50:33;19.20;99.90
9975;DHT22;5028;50.974;4.968;2022-09-09T12:53:07;19.20;99.90
9975;DHT22;5028;50.974;4.968;2022-09-09T12:55:50;19.20;99.90
9975;DHT22;5028;50.974;4.968;2022-09-09T12:58:21;19.30;99.90
9975;DHT22;5028;50.974;4.968;2022-09-09T13:00:56;19.50;99.90
9975;DHT22;5028;50.974;4.968;2022-09-09T13:03:26;19.60;99.90
9975;DHT22;5028;50.974;4.968;2022-09-09T13:06:12;19.60;99.90
9975;DHT22;5028;50.974;4.968;2022-09-09T13:08:58;19.60;99.90
9975;DHT22;5028;50.974;4.968;2022-09-09T13:11:36;19.60;99.90
9975;DHT22;5028;50.974;4.968;2022-09-09T13:14:16;19.60;99.90
9975;DHT22;5028;50.974;4.968;2022-09-09T13:16:57;19.90;99.90
9975;DHT22;5028;50.974;4.968;2022-09-09T13:19:30;20.10;99.90
9975;DHT22;5028;50.974;4.968;2022-09-09T13:22:13;19.90;99.90
9975;DHT22;5028;50.974;4.968;2022-09-09T13:24:42;19.80;99.90
9975;DHT22;5028;50.974;4.968;2022-09-09T13:27:26;19.70;99.90
9975;DHT22;5028;50.974;4.968;2022-09-09T13:29:57;19.70;99.90
9975;DHT22;5028;50.974;4.968;2022-09-09T13:32:33;19.70;99.90
9975;DHT22;5028;50.974;4.968;2022-09-09T13:35:02;19.80;99.90
9975;DHT22;5028;50.974;4.968;2022-09-09T13:37:38;19.80;99.90
9975;DHT22;5028;50.974;4.968;2022-09-09T13:40:17;19.80;99.90
9975;DHT22;5028;50.974;4.968;2022-09-09T13:42:55;19.80;99.90
9975;DHT22;5028;50.974;4.968;2022-09-09T13:45:26;20.10;99.90
9975;DHT22;5028;50.974;4.968;2022-09-09T13:48:09;20.50;99.90
9975;DHT22;5028;50.974;4.968;2022-09-09T13:50:38;20.80;99.90
9975;DHT22;5028;50.974;4.968;2022-09-09T13:53:15;20.60;99.90
9975;DHT22;5028;50.974;4.968;2022-09-09T13:55:44;20.50;99.90
9975;DHT22;5028;50.974;4.968;2022-09-09T13:58:19;20.40;99.90
9975;DHT22;5028;50.974;4.968;2022-09-09T14:00:49;20.40;99.90
9975;DHT22;5028;50.974;4.968;2022-09-09T14:03:25;20.60;99.90
9975;DHT22;5028;50.974;4.968;2022-09-09T14:05:53;20.50;99.90
9975;DHT22;5028;50.974;4.968;2022-09-09T14:08:36;20.50;99.90
9975;DHT22;5028;50.974;4.968;2022-09-09T14:11:05;20.60;99.90
9975;DHT22;5028;50.974;4.968;2022-09-09T14:13:41;20.60;99.90
9975;DHT22;5028;50.974;4.968;2022-09-09T14:16:11;20.50;99.90
9975;DHT22;5028;50.974;4.968;2022-09-09T14:18:47;20.40;99.90
9975;DHT22;5028;50.974;4.968;2022-09-09T14:21:16;20.40;99.90
9975;DHT22;5028;50.974;4.968;2022-09-09T14:23:51;20.50;99.90
9975;DHT22;5028;50.974;4.968;2022-09-09T14:26:21;20.50;99.90
9975;DHT22;5028;50.974;4.968;2022-09-09T14:28:57;20.60;99.90
9975;DHT22;5028;50.974;4.968;2022-09-09T14:31:28;20.50;99.90
9975;DHT22;5028;50.974;4.968;2022-09-09T14:34:03;20.40;99.90
9975;DHT22;5028;50.974;4.968;2022-09-09T14:36:32;20.40;99.90
9975;DHT22;5028;50.974;4.968;2022-09-09T14:39:08;20.60;99.90
9975;DHT22;5028;50.974;4.968;2022-09-09T14:41:36;20.70;99.90
9975;DHT22;5028;50.974;4.968;2022-09-09T14:44:12;20.60;99.90
9975;DHT22;5028;50.974;4.968;2022-09-09T14:46:42;20.50;99.90
9975;DHT22;5028;50.974;4.968;2022-09-09T14:49:17;20.40;99.90
9975;DHT22;5028;50.974;4.968;2022-09-09T14:51:46;20.40;99.90
9975;DHT22;5028;50.974;4.968;2022-09-09T14:54:21;20.40;99.90
9975;DHT22;5028;50.974;4.968;2022-09-09T14:56:49;20.60;99.90
9975;DHT22;5028;50.974;4.968;2022-09-09T14:59:24;20.50;99.90
9975;DHT22;5028;50.974;4.968;2022-09-09T15:01:55;20.40;99.90
9975;DHT22;5028;50.974;4.968;2022-09-09T15:04:30;20.30;99.90
9975;DHT22;5028;50.974;4.968;2022-09-09T15:06:58;20.20;99.90
9975;DHT22;5028;50.974;4.968;2022-09-09T15:09:40;20.10;99.90
9975;DHT22;5028;50.974;4.968;2022-09-09T15:12:08;20.00;99.90
9975;DHT22;5028;50.974;4.968;2022-09-09T15:14:43;20.10;99.90
9975;DHT22;5028;50.974;4.968;2022-09-09T15:17:13;20.10;99.90
9975;DHT22;5028;50.974;4.968;2022-09-09T15:19:48;20.10;99.90
9975;DHT22;5028;50.974;4.968;2022-09-09T15:22:17;20.30;99.90
9975;DHT22;5028;50.974;4.968;2022-09-09T15:24:52;20.40;99.90
9975;DHT22;5028;50.974;4.968;2022-09-09T15:27:20;20.30;99.90
9975;DHT22;5028;50.974;4.968;2022-09-09T15:29:56;20.30;99.90
9975;DHT22;5028;50.974;4.968;2022-09-09T15:32:27;20.30;99.90
9975;DHT22;5028;50.974;4.968;2022-09-09T15:35:02;20.40;99.90
9975;DHT22;5028;50.974;4.968;2022-09-09T15:37:30;20.30;99.90
9975;DHT22;5028;50.974;4.968;2022-09-09T15:40:06;20.40;99.90
9975;DHT22;5028;50.974;4.968;2022-09-09T15:42:35;20.40;99.90
9975;DHT22;5028;50.974;4.968;2022-09-09T15:45:10;20.40;99.90
9975;DHT22;5028;50.974;4.968;2022-09-09T15:47:41;20.40;99.90
9975;DHT22;5028;50.974;4.968;2022-09-09T15:50:17;20.30;99.90
9975;DHT22;5028;50.974;4.968;2022-09-09T15:52:46;20.20;99.90
9975;DHT22;5028;50.974;4.968;2022-09-09T15:55:21;20.10;99.90
9975;DHT22;5028;50.974;4.968;2022-09-09T15:57:51;20.00;99.90
9975;DHT22;5028;50.974;4.968;2022-09-09T16:00:27;20.00;99.90
9975;DHT22;5028;50.974;4.968;2022-09-09T16:02:58;19.90;99.90
9975;DHT22;5028;50.974;4.968;2022-09-09T16:05:33;19.80;99.90
9975;DHT22;5028;50.974;4.968;2022-09-09T16:08:09;19.80;99.90
9975;DHT22;5028;50.974;4.968;2022-09-09T16:10:44;19.80;99.90
9975;DHT22;5028;50.974;4.968;2022-09-09T16:13:12;19.80;99.90
9975;DHT22;5028;50.974;4.968;2022-09-09T16:15:53;19.80;99.90
9975;DHT22;5028;50.974;4.968;2022-09-09T16:18:23;19.70;99.90
9975;DHT22;5028;50.974;4.968;2022-09-09T16:20:58;19.80;99.90
9975;DHT22;5028;50.974;4.968;2022-09-09T16:23:27;19.70;99.90
9975;DHT22;5028;50.974;4.968;2022-09-09T16:26:02;19.80;99.90
9975;DHT22;5028;50.974;4.968;2022-09-09T16:28:32;19.70;99.90
9975;DHT22;5028;50.974;4.968;2022-09-09T16:31:07;19.70;99.90
9975;DHT22;5028;50.974;4.968;2022-09-09T16:33:38;19.70;99.90
9975;DHT22;5028;50.974;4.968;2022-09-09T16:36:15;19.70;99.90
9975;DHT22;5028;50.974;4.968;2022-09-09T16:38:44;19.70;99.90
9975;DHT22;5028;50.974;4.968;2022-09-09T16:41:19;19.70;99.90
9975;DHT22;5028;50.974;4.968;2022-09-09T16:43:52;19.60;99.90
9975;DHT22;5028;50.974;4.968;2022-09-09T16:46:28;19.50;99.90
9975;DHT22;5028;50.974;4.968;2022-09-09T16:49:00;19.40;99.90
9975;DHT22;5028;50.974;4.968;2022-09-09T16:51:36;19.40;99.90
9975;DHT22;5028;50.974;4.968;2022-09-09T16:54:07;19.30;99.90
9975;DHT22;5028;50.974;4.968;2022-09-09T16:56:44;19.30;99.90
9975;DHT22;5028;50.974;4.968;2022-09-09T16:59:14;19.20;99.90
9975;DHT22;5028;50.974;4.968;2022-09-09T17:01:50;19.10;99.90
9975;DHT22;5028;50.974;4.968;2022-09-09T17:04:23;19.10;99.90